Time;durP1;ratioP1;P1;durP2;ratioP2;P2;SDS_P1;SDS_P2;PMS_P1;PMS_P2;Temp;Humidity;BMP_temperature;BMP_pressure;BME280_temperature;BME280_humidity;BME280_pressure;Samples;Min_cycle;Max_cycle;Signal;HPM_P1;HPM_P2
2022/09/21 00:01:44;;;;;;;0.30;0.30;;;;;;;;;;7382028;19;20476;-75
2022/09/21 00:04:09;;;;;;;0.47;0.47;;;;;;;;;;7380886;19;20129;-75
2022/09/21 00:06:36;;;;;;;0.30;0.30;;;;;;;;;;7379911;19;20125;-75
2022/09/21 00:09:03;;;;;;;0.30;0.30;;;;;;;;;;7384016;19;20564;-75
2022/09/21 00:11:31;;;;;;;0.40;0.40;;;;;;;;;;7382559;19;20124;-75
2022/09/21 00:14:05;;;;;;;0.20;0.20;;;;;;;;;;7379412;19;20404;-75
2022/09/21 00:16:31;;;;;;;0.30;0.30;;;;;;;;;;7380978;19;20205;-75
2022/09/21 00:18:56;;;;;;;0.20;0.20;;;;;;;;;;7381739;19;20529;-75
2022/09/21 00:21:22;;;;;;;0.30;0.30;;;;;;;;;;7380528;19;20105;-75
2022/09/21 00:23:48;;;;;;;0.30;0.30;;;;;;;;;;7382050;19;20157;-75
2022/09/21 00:26:14;;;;;;;0.43;0.43;;;;;;;;;;7382320;19;20129;-75
2022/09/21 00:28:40;;;;;;;0.30;0.30;;;;;;;;;;7383322;19;20194;-75
2022/09/21 00:31:09;;;;;;;0.30;0.30;;;;;;;;;;7380412;19;20125;-75
2022/09/21 00:33:35;;;;;;;0.20;0.20;;;;;;;;;;7380759;19;20153;-72
2022/09/21 00:36:05;;;;;;;0.40;0.40;;;;;;;;;;7382490;19;20579;-75
2022/09/21 00:38:31;;;;;;;0.27;0.27;;;;;;;;;;7380899;19;20626;-75
2022/09/21 00:40:56;;;;;;;0.30;0.30;;;;;;;;;;7382100;19;20176;-75
2022/09/21 00:43:22;;;;;;;0.30;0.30;;;;;;;;;;7380494;19;20451;-75
2022/09/21 00:45:49;;;;;;;0.23;0.23;;;;;;;;;;7379631;19;20594;-75
2022/09/21 00:48:14;;;;;;;0.20;0.20;;;;;;;;;;7380478;19;20145;-75
2022/09/21 00:50:45;;;;;;;0.30;0.30;;;;;;;;;;7380051;19;20488;-75
2022/09/21 00:53:10;;;;;;;0.23;0.23;;;;;;;;;;7381132;19;20180;-75
2022/09/21 00:55:50;;;;;;;0.30;0.30;;;;;;;;;;7380319;19;20162;-75
2022/09/21 00:58:19;;;;;;;0.30;0.30;;;;;;;;;;7380227;19;20607;-75
2022/09/21 01:00:45;;;;;;;0.33;0.33;;;;;;;;;;7380639;19;20157;-76
2022/09/21 01:03:11;;;;;;;0.30;0.30;;;;;;;;;;7378634;19;20134;-75
2022/09/21 01:05:36;;;;;;;0.30;0.30;;;;;;;;;;7378291;19;20184;-75
2022/09/21 01:08:05;;;;;;;1.00;1.00;;;;;;;;;;7379618;19;20675;-76
2022/09/21 01:10:41;;;;;;;0.30;0.30;;;;;;;;;;7380585;19;20105;-75
2022/09/21 01:13:23;;;;;;;0.30;0.30;;;;;;;;;;7382274;19;20459;-75
2022/09/21 01:16:04;;;;;;;0.30;0.30;;;;;;;;;;7379808;19;20133;-75
2022/09/21 01:18:46;;;;;;;0.30;0.30;;;;;;;;;;7378689;19;20124;-74
2022/09/21 01:21:20;;;;;;;0.30;0.30;;;;;;;;;;7378036;19;20196;-75
2022/09/21 01:24:07;;;;;;;0.30;0.30;;;;;;;;;;7375583;19;20157;-75
2022/09/21 01:26:54;;;;;;;0.30;0.30;;;;;;;;;;7380670;19;20121;-74
2022/09/21 01:29:25;;;;;;;0.60;0.60;;;;;;;;;;7377488;19;20615;-75
2022/09/21 01:31:57;;;;;;;0.30;0.30;;;;;;;;;;7378209;19;20121;-75
2022/09/21 01:34:25;;;;;;;0.30;0.30;;;;;;;;;;7376586;19;20136;-75
2022/09/21 01:36:54;;;;;;;0.30;0.30;;;;;;;;;;7371549;19;20149;-75
2022/09/21 01:39:20;;;;;;;0.30;0.30;;;;;;;;;;7370897;19;20156;-75
2022/09/21 01:41:47;;;;;;;0.30;0.30;;;;;;;;;;7370362;19;20584;-74
2022/09/21 01:44:17;;;;;;;0.40;0.40;;;;;;;;;;7369945;19;20156;-74
2022/09/21 01:46:45;;;;;;;0.30;0.30;;;;;;;;;;7371524;19;20144;-75
2022/09/21 01:49:15;;;;;;;0.40;0.40;;;;;;;;;;7370729;19;20113;-74
2022/09/21 01:51:47;;;;;;;0.40;0.40;;;;;;;;;;7379965;19;20571;-74
2022/09/21 01:54:22;;;;;;;0.50;0.50;;;;;;;;;;7378746;19;20125;-75
2022/09/21 01:57:01;;;;;;;0.40;0.40;;;;;;;;;;7380292;19;20457;-75
2022/09/21 01:59:36;;;;;;;0.30;0.30;;;;;;;;;;7380621;19;20108;-74
2022/09/21 02:02:10;;;;;;;1.47;0.50;;;;;;;;;;7380613;19;20135;-74
2022/09/21 02:04:37;;;;;;;0.77;0.67;;;;;;;;;;7377754;19;20161;-74
2022/09/21 02:07:03;;;;;;;0.30;0.30;;;;;;;;;;7380018;19;20555;-75
2022/09/21 02:11:57;;;;;;;0.40;0.40;;;;;;;;;;7378442;19;20545;-74
2022/09/21 02:14:24;;;;;;;0.30;0.30;;;;;;;;;;7380659;19;20133;-74
2022/09/21 02:17:25;;;;;;;0.30;0.30;;;;;;;;;;7379941;19;20129;-74
2022/09/21 02:20:13;;;;;;;0.40;0.40;;;;;;;;;;7378996;19;20128;-74
2022/09/21 02:22:50;;;;;;;0.30;0.30;;;;;;;;;;7390663;19;20174;-74
2022/09/21 02:25:20;;;;;;;0.20;0.20;;;;;;;;;;7385525;19;20146;-74
2022/09/21 02:27:55;;;;;;;0.30;0.30;;;;;;;;;;7388059;19;20448;-75
2022/09/21 02:30:23;;;;;;;0.30;0.30;;;;;;;;;;7381654;19;20575;-74
2022/09/21 02:33:11;;;;;;;0.30;0.30;;;;;;;;;;7386364;19;20595;-75
2022/09/21 02:35:42;;;;;;;0.30;0.30;;;;;;;;;;7387717;19;20109;-74
2022/09/21 02:38:19;;;;;;;0.40;0.40;;;;;;;;;;7386072;19;20691;-74
2022/09/21 02:40:52;;;;;;;0.90;0.80;;;;;;;;;;7385297;19;20124;-74
2022/09/21 02:44:02;;;;;;;0.53;0.53;;;;;;;;;;7387203;19;20168;-74
2022/09/21 02:46:47;;;;;;;0.30;0.30;;;;;;;;;;7386525;19;20129;-74
2022/09/21 02:49:17;;;;;;;0.30;0.30;;;;;;;;;;7386306;19;20143;-74
2022/09/21 02:51:46;;;;;;;0.63;0.63;;;;;;;;;;7384548;19;20472;-74
2022/09/21 02:54:13;;;;;;;0.30;0.30;;;;;;;;;;7385986;19;20532;-74
2022/09/21 02:56:40;;;;;;;0.30;0.30;;;;;;;;;;7386238;19;20133;-74
2022/09/21 02:59:05;;;;;;;0.20;0.20;;;;;;;;;;7385381;19;20121;-74
2022/09/21 03:01:31;;;;;;;0.20;0.20;;;;;;;;;;7386317;19;20123;-74
2022/09/21 03:03:57;;;;;;;0.30;0.30;;;;;;;;;;7383081;19;20669;-74
2022/09/21 03:06:22;;;;;;;0.40;0.40;;;;;;;;;;7387547;19;20121;-74
2022/09/21 03:08:48;;;;;;;0.30;0.30;;;;;;;;;;7385815;19;20495;-75
2022/09/21 03:11:17;;;;;;;0.30;0.30;;;;;;;;;;7385887;19;20132;-74
2022/09/21 03:13:43;;;;;;;0.30;0.30;;;;;;;;;;7383843;19;20726;-74
2022/09/21 03:16:09;;;;;;;0.40;0.40;;;;;;;;;;7386160;19;20109;-74
2022/09/21 03:18:34;;;;;;;0.20;0.20;;;;;;;;;;7384007;19;20128;-74
2022/09/21 03:21:01;;;;;;;0.20;0.20;;;;;;;;;;7386806;19;20433;-75
2022/09/21 03:23:26;;;;;;;0.20;0.20;;;;;;;;;;7387241;19;20472;-75
2022/09/21 03:25:51;;;;;;;0.30;0.30;;;;;;;;;;7386908;19;20140;-74
2022/09/21 03:28:17;;;;;;;3.00;0.70;;;;;;;;;;7385869;19;20139;-74
2022/09/21 03:30:43;;;;;;;0.47;0.47;;;;;;;;;;7384630;19;20535;-74
2022/09/21 03:33:09;;;;;;;0.40;0.40;;;;;;;;;;7379770;19;20129;-74
2022/09/21 03:35:34;;;;;;;0.30;0.30;;;;;;;;;;7382500;19;20482;-74
2022/09/21 03:38:00;;;;;;;0.30;0.30;;;;;;;;;;7383921;19;20603;-74
2022/09/21 03:40:26;;;;;;;0.50;0.50;;;;;;;;;;7384075;19;20109;-74
2022/09/21 03:42:51;;;;;;;0.33;0.33;;;;;;;;;;7385733;19;20105;-74
2022/09/21 03:45:17;;;;;;;0.30;0.30;;;;;;;;;;7383943;19;20128;-74
2022/09/21 03:47:42;;;;;;;0.30;0.30;;;;;;;;;;7383443;19;20128;-75
2022/09/21 03:50:08;;;;;;;0.33;0.33;;;;;;;;;;7381053;19;20145;-74
2022/09/21 03:52:35;;;;;;;0.30;0.30;;;;;;;;;;7383320;19;20451;-74
2022/09/21 03:55:02;;;;;;;0.20;0.20;;;;;;;;;;7381134;19;20166;-74
2022/09/21 03:57:27;;;;;;;0.50;0.50;;;;;;;;;;7385996;19;20125;-74
2022/09/21 03:59:53;;;;;;;0.30;0.30;;;;;;;;;;7379586;19;20459;-74
2022/09/21 04:02:18;;;;;;;0.30;0.30;;;;;;;;;;7380959;19;20125;-75
2022/09/21 04:04:44;;;;;;;0.30;0.30;;;;;;;;;;7383660;19;20150;-74
2022/09/21 04:07:09;;;;;;;0.20;0.20;;;;;;;;;;7384281;19;20192;-74
2022/09/21 04:09:34;;;;;;;1.77;0.63;;;;;;;;;;7381164;19;20200;-74
2022/09/21 04:12:00;;;;;;;0.53;0.43;;;;;;;;;;7376414;19;20767;-74
2022/09/21 04:14:25;;;;;;;0.30;0.30;;;;;;;;;;7383749;19;20161;-74
2022/09/21 04:16:51;;;;;;;0.30;0.30;;;;;;;;;;7379374;19;20505;-74
2022/09/21 04:19:17;;;;;;;0.37;0.37;;;;;;;;;;7380820;19;20113;-74
2022/09/21 04:21:42;;;;;;;0.30;0.30;;;;;;;;;;7383830;19;20113;-74
2022/09/21 04:24:07;;;;;;;0.30;0.30;;;;;;;;;;7373097;19;20156;-74
2022/09/21 04:26:34;;;;;;;0.30;0.30;;;;;;;;;;7375867;19;20521;-74
2022/09/21 04:28:59;;;;;;;0.27;0.27;;;;;;;;;;7372023;19;20975;-74
2022/09/21 04:31:26;;;;;;;0.30;0.30;;;;;;;;;;7373971;19;20101;-74
2022/09/21 04:33:53;;;;;;;0.30;0.30;;;;;;;;;;7375062;19;20133;-74
2022/09/21 04:36:19;;;;;;;0.30;0.30;;;;;;;;;;7374909;19;20634;-74
2022/09/21 04:38:45;;;;;;;0.30;0.30;;;;;;;;;;7379127;19;20477;-74
2022/09/21 04:41:11;;;;;;;0.60;0.60;;;;;;;;;;7381918;19;20655;-74
2022/09/21 04:43:37;;;;;;;0.30;0.30;;;;;;;;;;7380569;19;20121;-74
2022/09/21 04:46:11;;;;;;;0.40;0.40;;;;;;;;;;7382641;19;20599;-74
2022/09/21 04:48:37;;;;;;;0.30;0.30;;;;;;;;;;7383724;19;20456;-74
2022/09/21 04:51:03;;;;;;;0.20;0.20;;;;;;;;;;7379698;19;20121;-74
2022/09/21 04:53:29;;;;;;;0.40;0.40;;;;;;;;;;7382928;19;20133;-74
2022/09/21 04:55:54;;;;;;;0.90;0.90;;;;;;;;;;7379302;19;20148;-74
2022/09/21 04:58:21;;;;;;;0.20;0.20;;;;;;;;;;7380420;19;20137;-74
2022/09/21 05:00:51;;;;;;;0.30;0.30;;;;;;;;;;7382632;19;20149;-74
2022/09/21 05:03:17;;;;;;;0.30;0.30;;;;;;;;;;7381306;19;20188;-74
2022/09/21 05:05:49;;;;;;;0.20;0.20;;;;;;;;;;7380762;19;20673;-74
2022/09/21 05:08:16;;;;;;;0.30;0.30;;;;;;;;;;7381088;19;20113;-74
2022/09/21 05:10:42;;;;;;;0.40;0.40;;;;;;;;;;7377551;19;20141;-74
2022/09/21 05:13:07;;;;;;;0.20;0.20;;;;;;;;;;7379196;19;20149;-74
2022/09/21 05:15:33;;;;;;;0.30;0.30;;;;;;;;;;7379900;19;20482;-74
2022/09/21 05:17:58;;;;;;;0.30;0.30;;;;;;;;;;7380344;19;20587;-74
2022/09/21 05:20:23;;;;;;;0.77;0.77;;;;;;;;;;7375136;19;20134;-74
2022/09/21 05:22:48;;;;;;;0.30;0.30;;;;;;;;;;7382094;19;20201;-74
2022/09/21 05:25:14;;;;;;;0.30;0.30;;;;;;;;;;7380980;19;20634;-75
2022/09/21 05:27:39;;;;;;;0.40;0.40;;;;;;;;;;7381752;19;20591;-74
2022/09/21 05:30:05;;;;;;;0.30;0.30;;;;;;;;;;7377778;19;20162;-74
2022/09/21 05:32:56;;;;;;;0.30;0.30;;;;;;;;;;7378177;19;20203;-74
2022/09/21 05:35:35;;;;;;;0.30;0.30;;;;;;;;;;7365983;19;20488;-74
2022/09/21 05:38:07;;;;;;;0.20;0.20;;;;;;;;;;7369210;19;20131;-74
2022/09/21 05:40:33;;;;;;;0.30;0.30;;;;;;;;;;7377779;19;20110;-74
2022/09/21 05:42:59;;;;;;;0.30;0.30;;;;;;;;;;7380387;19;20476;-74
2022/09/21 05:45:25;;;;;;;0.30;0.30;;;;;;;;;;7382934;19;20117;-74
2022/09/21 05:48:10;;;;;;;0.30;0.30;;;;;;;;;;7381595;19;20105;-74
2022/09/21 05:50:39;;;;;;;0.30;0.30;;;;;;;;;;7379252;19;20133;-74
2022/09/21 05:53:26;;;;;;;0.30;0.30;;;;;;;;;;7382612;19;20125;-74
2022/09/21 05:55:55;;;;;;;0.30;0.30;;;;;;;;;;7383901;19;20125;-74
2022/09/21 05:58:36;;;;;;;0.30;0.30;;;;;;;;;;7385935;19;20105;-74
2022/09/21 06:01:18;;;;;;;0.30;0.30;;;;;;;;;;7388021;19;20121;-74
2022/09/21 06:03:43;;;;;;;0.20;0.20;;;;;;;;;;7386984;19;20548;-74
2022/09/21 06:06:09;;;;;;;0.30;0.30;;;;;;;;;;7388369;19;20152;-74
2022/09/21 06:08:34;;;;;;;0.20;0.20;;;;;;;;;;7388416;19;20128;-74
2022/09/21 06:11:00;;;;;;;0.30;0.30;;;;;;;;;;7387622;19;20121;-74
2022/09/21 06:13:25;;;;;;;0.50;0.50;;;;;;;;;;7383948;19;20161;-74
2022/09/21 06:15:51;;;;;;;0.30;0.30;;;;;;;;;;7381241;19;20116;-74
2022/09/21 06:18:16;;;;;;;0.30;0.30;;;;;;;;;;7386979;19;20117;-74
2022/09/21 06:20:41;;;;;;;0.50;0.50;;;;;;;;;;7387024;19;20125;-74
2022/09/21 06:23:09;;;;;;;0.43;0.43;;;;;;;;;;7388097;19;20571;-74
2022/09/21 06:25:34;;;;;;;1.33;0.60;;;;;;;;;;7384369;19;20129;-74
2022/09/21 06:28:10;;;;;;;0.60;0.60;;;;;;;;;;7386288;19;20117;-74
2022/09/21 06:30:36;;;;;;;0.20;0.20;;;;;;;;;;7385074;19;20125;-74
2022/09/21 06:33:03;;;;;;;0.60;0.60;;;;;;;;;;7384876;19;20137;-74
2022/09/21 06:35:29;;;;;;;0.40;0.40;;;;;;;;;;7385899;19;20105;-74
2022/09/21 06:38:05;;;;;;;0.30;0.30;;;;;;;;;;7385181;19;20159;-74
2022/09/21 06:40:31;;;;;;;0.50;0.50;;;;;;;;;;7382542;19;20148;-74
2022/09/21 06:42:58;;;;;;;0.30;0.30;;;;;;;;;;7385937;19;20124;-74
2022/09/21 06:45:25;;;;;;;2.27;0.87;;;;;;;;;;7387109;19;20597;-74
2022/09/21 06:47:50;;;;;;;0.30;0.30;;;;;;;;;;7385453;19;20137;-74
2022/09/21 06:50:15;;;;;;;0.30;0.30;;;;;;;;;;7386150;19;20105;-74
2022/09/21 06:52:41;;;;;;;0.40;0.40;;;;;;;;;;7386253;19;20706;-74
2022/09/21 06:55:07;;;;;;;0.50;0.50;;;;;;;;;;7383290;19;20634;-74
2022/09/21 06:57:32;;;;;;;0.40;0.40;;;;;;;;;;7386248;19;20129;-74
2022/09/21 06:59:58;;;;;;;0.30;0.30;;;;;;;;;;7383497;19;20117;-74
2022/09/21 07:02:23;;;;;;;0.30;0.30;;;;;;;;;;7382687;19;20120;-74
2022/09/21 07:04:48;;;;;;;3.37;0.73;;;;;;;;;;7380597;19;20517;-74
2022/09/21 07:07:14;;;;;;;1.40;1.00;;;;;;;;;;7382829;19;20125;-74
2022/09/21 07:09:39;;;;;;;0.40;0.40;;;;;;;;;;7385338;19;20117;-74
2022/09/21 07:12:07;;;;;;;0.40;0.40;;;;;;;;;;7387227;19;20606;-74
2022/09/21 07:14:32;;;;;;;0.33;0.33;;;;;;;;;;7381697;19;20500;-74
2022/09/21 07:16:58;;;;;;;0.30;0.30;;;;;;;;;;7384664;19;20188;-74
2022/09/21 07:19:23;;;;;;;0.30;0.30;;;;;;;;;;7383569;19;20152;-74
2022/09/21 07:21:49;;;;;;;0.43;0.43;;;;;;;;;;7385344;19;20114;-74
2022/09/21 07:24:14;;;;;;;0.50;0.50;;;;;;;;;;7384149;19;20121;-74
2022/09/21 07:26:40;;;;;;;0.67;0.67;;;;;;;;;;7383434;19;20125;-74
2022/09/21 07:29:05;;;;;;;0.53;0.53;;;;;;;;;;7382035;19;20125;-74
2022/09/21 07:31:30;;;;;;;0.50;0.50;;;;;;;;;;7383732;19;20442;-74
2022/09/21 07:33:59;;;;;;;0.40;0.40;;;;;;;;;;7377676;19;21136;-74
2022/09/21 07:36:25;;;;;;;3.07;1.13;;;;;;;;;;7377831;19;20120;-74
2022/09/21 07:38:52;;;;;;;0.87;0.87;;;;;;;;;;7376946;19;20113;-74
2022/09/21 07:41:17;;;;;;;0.30;0.30;;;;;;;;;;7383016;19;20603;-74
2022/09/21 07:43:42;;;;;;;0.67;0.67;;;;;;;;;;7382753;19;20137;-74
2022/09/21 07:46:13;;;;;;;0.40;0.40;;;;;;;;;;7383614;19;20117;-74
2022/09/21 07:48:39;;;;;;;0.37;0.37;;;;;;;;;;7382521;19;20473;-74
2022/09/21 07:51:06;;;;;;;0.43;0.40;;;;;;;;;;7379832;19;20133;-74
2022/09/21 07:53:33;;;;;;;0.43;0.43;;;;;;;;;;7382908;19;20152;-74
2022/09/21 07:56:03;;;;;;;0.43;0.43;;;;;;;;;;7382769;19;20152;-74
2022/09/21 08:01:13;;;;;;;0.60;0.60;;;;;;;;;;7385072;19;20128;-74
2022/09/21 08:03:39;;;;;;;0.30;0.30;;;;;;;;;;7382336;19;20579;-74
2022/09/21 08:06:05;;;;;;;0.43;0.43;;;;;;;;;;7382628;19;20137;-74
2022/09/21 08:08:31;;;;;;;1.00;0.90;;;;;;;;;;7384032;19;20165;-74
2022/09/21 08:11:01;;;;;;;0.30;0.30;;;;;;;;;;7381117;19;20564;-74
2022/09/21 08:13:26;;;;;;;0.40;0.40;;;;;;;;;;7382936;19;20579;-74
2022/09/21 08:16:01;;;;;;;0.37;0.37;;;;;;;;;;7384452;19;20127;-74
2022/09/21 08:18:27;;;;;;;0.30;0.30;;;;;;;;;;7380547;19;20129;-74
2022/09/21 08:21:00;;;;;;;0.60;0.60;;;;;;;;;;7380730;19;20148;-74
2022/09/21 08:23:27;;;;;;;0.43;0.43;;;;;;;;;;7384171;19;20587;-74
2022/09/21 08:26:17;;;;;;;3.40;0.90;;;;;;;;;;7381527;19;20565;-74
2022/09/21 08:28:43;;;;;;;0.40;0.40;;;;;;;;;;7382904;19;20542;-75
2022/09/21 08:31:09;;;;;;;0.30;0.30;;;;;;;;;;7381966;19;20614;-74
2022/09/21 08:33:34;;;;;;;0.30;0.30;;;;;;;;;;7383158;19;20533;-74
2022/09/21 08:36:00;;;;;;;0.23;0.23;;;;;;;;;;7381438;19;20113;-74
2022/09/21 08:38:30;;;;;;;0.40;0.40;;;;;;;;;;7383735;19;20140;-74
2022/09/21 08:40:55;;;;;;;0.30;0.30;;;;;;;;;;7381914;19;20205;-74
2022/09/21 08:43:34;;;;;;;0.20;0.20;;;;;;;;;;7378944;19;20160;-74
2022/09/21 08:46:00;;;;;;;0.30;0.30;;;;;;;;;;7370953;19;20137;-75
2022/09/21 08:48:29;;;;;;;0.30;0.30;;;;;;;;;;7382018;19;20127;-75
2022/09/21 08:50:56;;;;;;;0.30;0.30;;;;;;;;;;7379577;19;20125;-74
2022/09/21 08:53:30;;;;;;;0.30;0.30;;;;;;;;;;7376677;19;20602;-75
2022/09/21 08:56:23;;;;;;;0.30;0.30;;;;;;;;;;7380694;19;20510;-74
2022/09/21 08:58:49;;;;;;;0.30;0.30;;;;;;;;;;7374904;19;20125;-74
2022/09/21 09:01:38;;;;;;;0.20;0.20;;;;;;;;;;7379048;19;20165;-74
2022/09/21 09:04:28;;;;;;;0.30;0.30;;;;;;;;;;7376815;19;20223;-74
2022/09/21 09:07:07;;;;;;;0.30;0.30;;;;;;;;;;7382437;19;20138;-74
2022/09/21 09:09:48;;;;;;;0.30;0.30;;;;;;;;;;7379777;19;20156;-75
2022/09/21 09:12:47;;;;;;;0.30;0.30;;;;;;;;;;7380153;19;20133;-74
2022/09/21 09:15:46;;;;;;;0.30;0.30;;;;;;;;;;7379109;19;20185;-74
2022/09/21 09:18:24;;;;;;;0.30;0.30;;;;;;;;;;7381175;19;20121;-74
2022/09/21 09:20:57;;;;;;;7.00;0.93;;;;;;;;;;7379981;19;20469;-74
2022/09/21 09:23:28;;;;;;;0.33;0.33;;;;;;;;;;7380580;19;20157;-74
2022/09/21 09:25:59;;;;;;;0.40;0.40;;;;;;;;;;7378833;19;20201;-74
2022/09/21 09:28:29;;;;;;;0.30;0.30;;;;;;;;;;7382719;19;20204;-74
2022/09/21 09:31:17;;;;;;;0.20;0.20;;;;;;;;;;7375921;19;20144;-74
2022/09/21 09:33:52;;;;;;;0.30;0.30;;;;;;;;;;7380441;19;20157;-74
2022/09/21 09:36:18;;;;;;;0.30;0.30;;;;;;;;;;7376899;19;20132;-74
2022/09/21 09:38:49;;;;;;;0.20;0.20;;;;;;;;;;7376569;19;20121;-77
2022/09/21 09:41:18;;;;;;;0.30;0.30;;;;;;;;;;7380642;19;20121;-75
2022/09/21 09:44:14;;;;;;;0.43;0.43;;;;;;;;;;7378080;19;20164;-74
2022/09/21 09:46:55;;;;;;;0.30;0.30;;;;;;;;;;7374661;19;20490;-75
2022/09/21 09:49:34;;;;;;;0.30;0.30;;;;;;;;;;7374207;19;20140;-74
2022/09/21 09:52:00;;;;;;;0.30;0.30;;;;;;;;;;7374865;19;20121;-74
2022/09/21 09:54:27;;;;;;;0.30;0.30;;;;;;;;;;7372579;19;20184;-74
2022/09/21 09:56:54;;;;;;;0.43;0.43;;;;;;;;;;7375353;19;20134;-74
2022/09/21 09:59:22;;;;;;;0.30;0.30;;;;;;;;;;7378937;19;20125;-74
2022/09/21 10:02:02;;;;;;;0.30;0.30;;;;;;;;;;7380447;19;20125;-74
2022/09/21 10:04:27;;;;;;;0.30;0.30;;;;;;;;;;7378767;19;20160;-74
2022/09/21 10:06:52;;;;;;;0.97;0.63;;;;;;;;;;7380871;19;20635;-75
2022/09/21 10:09:28;;;;;;;0.30;0.30;;;;;;;;;;7381962;19;20607;-75
2022/09/21 10:12:03;;;;;;;0.40;0.40;;;;;;;;;;7382486;19;20143;-73
2022/09/21 10:14:32;;;;;;;0.30;0.30;;;;;;;;;;7380283;19;20129;-74
2022/09/21 10:17:03;;;;;;;0.30;0.30;;;;;;;;;;7381333;19;20166;-74
2022/09/21 10:19:28;;;;;;;0.30;0.30;;;;;;;;;;7375813;19;20125;-74
2022/09/21 10:21:59;;;;;;;0.87;0.87;;;;;;;;;;7375782;19;20119;-74
2022/09/21 10:24:33;;;;;;;0.30;0.30;;;;;;;;;;7379231;19;20121;-75
2022/09/21 10:27:09;;;;;;;0.30;0.30;;;;;;;;;;7379017;19;20125;-74
2022/09/21 10:29:41;;;;;;;0.40;0.40;;;;;;;;;;7379655;19;20139;-75
2022/09/21 10:32:13;;;;;;;0.30;0.30;;;;;;;;;;7378890;19;20520;-76
2022/09/21 10:34:40;;;;;;;0.30;0.30;;;;;;;;;;7377103;19;20166;-74
2022/09/21 10:37:27;;;;;;;0.50;0.50;;;;;;;;;;7374514;19;20139;-74
2022/09/21 10:39:53;;;;;;;0.30;0.30;;;;;;;;;;7375137;19;20934;-74
2022/09/21 10:42:18;;;;;;;0.40;0.40;;;;;;;;;;7379491;19;20121;-74
2022/09/21 10:44:45;;;;;;;0.40;0.40;;;;;;;;;;7381174;19;20129;-75
2022/09/21 10:47:38;;;;;;;0.30;0.30;;;;;;;;;;7386371;19;20121;-74
2022/09/21 10:50:18;;;;;;;0.30;0.30;;;;;;;;;;7382556;19;20145;-75
2022/09/21 10:52:44;;;;;;;1.85;0.70;;;;;;;;;;7382327;19;20444;-75
2022/09/21 10:55:20;;;;;;;0.30;0.30;;;;;;;;;;7379861;19;20160;-75
2022/09/21 10:57:46;;;;;;;0.43;0.40;;;;;;;;;;7383482;19;20113;-75
2022/09/21 11:00:24;;;;;;;0.30;0.30;;;;;;;;;;7378939;19;20452;-75
2022/09/21 11:02:50;;;;;;;0.30;0.30;;;;;;;;;;7383414;19;20147;-75
2022/09/21 11:05:22;;;;;;;0.85;0.85;;;;;;;;;;7379848;19;20125;-74
2022/09/21 11:07:52;;;;;;;0.30;0.30;;;;;;;;;;7380480;19;20206;-75
2022/09/21 11:10:29;;;;;;;0.55;0.55;;;;;;;;;;7381479;19;20204;-74
2022/09/21 11:13:13;;;;;;;0.30;0.30;;;;;;;;;;7383058;19;20125;-74
2022/09/21 11:16:14;;;;;;;0.30;0.30;;;;;;;;;;7384475;19;20150;-75
2022/09/21 11:18:53;;;;;;;0.30;0.30;;;;;;;;;;7383387;19;20192;-74
2022/09/21 11:21:23;;;;;;;0.40;0.40;;;;;;;;;;7386198;19;20209;-75
2022/09/21 11:24:02;;;;;;;0.30;0.30;;;;;;;;;;7381171;19;20148;-75
2022/09/21 11:26:50;;;;;;;0.30;0.30;;;;;;;;;;7381135;19;20121;-75
2022/09/21 11:29:37;;;;;;;0.30;0.30;;;;;;;;;;7380147;19;20121;-75
2022/09/21 11:32:15;;;;;;;0.30;0.30;;;;;;;;;;7383545;19;20113;-76
2022/09/21 11:34:53;;;;;;;0.40;0.40;;;;;;;;;;7378083;19;20658;-75
2022/09/21 11:37:32;;;;;;;0.40;0.40;;;;;;;;;;7383148;19;20535;-75
2022/09/21 11:40:28;;;;;;;0.45;0.45;;;;;;;;;;7378468;19;20109;-75
2022/09/21 11:43:02;;;;;;;0.30;0.30;;;;;;;;;;7383031;19;20196;-75
2022/09/21 11:45:39;;;;;;;0.55;0.55;;;;;;;;;;7383726;19;20120;-75
2022/09/21 11:48:13;;;;;;;0.60;0.60;;;;;;;;;;7382922;19;20125;-74
2022/09/21 11:50:51;;;;;;;0.30;0.30;;;;;;;;;;7379914;19;20114;-75
2022/09/21 11:53:39;;;;;;;0.40;0.40;;;;;;;;;;7380696;19;20132;-75
2022/09/21 11:56:29;;;;;;;0.30;0.30;;;;;;;;;;7378932;19;20136;-75
2022/09/21 11:59:05;;;;;;;0.30;0.30;;;;;;;;;;7380998;19;20125;-75
2022/09/21 12:01:36;;;;;;;0.40;0.40;;;;;;;;;;7379842;19;20124;-75
2022/09/21 12:04:16;;;;;;;0.63;0.63;;;;;;;;;;7381338;19;20128;-76
2022/09/21 12:06:45;;;;;;;0.50;0.50;;;;;;;;;;7380227;19;20132;-75
2022/09/21 12:09:27;;;;;;;0.50;0.50;;;;;;;;;;7378496;19;20120;-75
2022/09/21 12:12:04;;;;;;;0.85;0.80;;;;;;;;;;7378383;19;20587;-74
2022/09/21 12:14:37;;;;;;;0.32;0.32;;;;;;;;;;7373664;19;20224;-74
2022/09/21 12:17:12;;;;;;;0.60;0.60;;;;;;;;;;7380662;19;20461;-75
2022/09/21 12:20:10;;;;;;;1.45;0.50;;;;;;;;;;7377917;19;20867;-74
2022/09/21 12:22:42;;;;;;;0.50;0.50;;;;;;;;;;7380493;19;20571;-74
2022/09/21 12:25:15;;;;;;;0.40;0.40;;;;;;;;;;7376627;19;20169;-74
2022/09/21 12:28:17;;;;;;;0.75;0.75;;;;;;;;;;7378484;19;20489;-74
2022/09/21 12:30:46;;;;;;;0.40;0.40;;;;;;;;;;7374304;19;20132;-74
2022/09/21 12:33:18;;;;;;;0.40;0.40;;;;;;;;;;7377995;19;20121;-74
2022/09/21 12:35:47;;;;;;;0.40;0.40;;;;;;;;;;7377121;19;20622;-74
2022/09/21 12:38:26;;;;;;;0.40;0.40;;;;;;;;;;7378218;19;20117;-74
2022/09/21 12:40:57;;;;;;;0.60;0.60;;;;;;;;;;7377584;19;20500;-75
2022/09/21 12:43:29;;;;;;;0.40;0.40;;;;;;;;;;7376538;19;20618;-74
2022/09/21 12:46:01;;;;;;;0.40;0.40;;;;;;;;;;7374270;19;20124;-75
2022/09/21 12:48:31;;;;;;;0.40;0.40;;;;;;;;;;7378305;19;20121;-74
2022/09/21 12:51:04;;;;;;;0.40;0.40;;;;;;;;;;7382324;19;20137;-75
2022/09/21 12:53:31;;;;;;;0.47;0.47;;;;;;;;;;7379656;19;20605;-74
2022/09/21 12:56:00;;;;;;;0.40;0.40;;;;;;;;;;7383602;19;20109;-74
2022/09/21 12:59:01;;;;;;;0.40;0.40;;;;;;;;;;7379226;19;20117;-75
2022/09/21 13:01:48;;;;;;;0.50;0.50;;;;;;;;;;7378267;19;20482;-74
2022/09/21 13:04:42;;;;;;;0.40;0.40;;;;;;;;;;7379229;19;20135;-74
2022/09/21 13:07:34;;;;;;;0.60;0.60;;;;;;;;;;7379124;19;20120;-74
2022/09/21 13:10:10;;;;;;;0.40;0.40;;;;;;;;;;7379806;19;20117;-75
2022/09/21 13:12:43;;;;;;;0.40;0.40;;;;;;;;;;7380215;19;20460;-74
2022/09/21 13:15:16;;;;;;;0.40;0.40;;;;;;;;;;7376728;19;20171;-74
2022/09/21 13:17:42;;;;;;;0.50;0.50;;;;;;;;;;7379802;19;20125;-74
2022/09/21 13:20:17;;;;;;;0.40;0.40;;;;;;;;;;7376089;19;20129;-74
2022/09/21 13:22:43;;;;;;;0.40;0.40;;;;;;;;;;7377405;19;20148;-74
2022/09/21 13:25:08;;;;;;;0.45;0.45;;;;;;;;;;7378847;19;20157;-74
2022/09/21 13:27:59;;;;;;;0.47;0.47;;;;;;;;;;7379128;19;20125;-74
2022/09/21 13:30:38;;;;;;;0.40;0.40;;;;;;;;;;7381024;19;20409;-74
2022/09/21 13:33:24;;;;;;;0.40;0.40;;;;;;;;;;7381783;19;20142;-75
2022/09/21 13:36:02;;;;;;;0.40;0.40;;;;;;;;;;7380877;19;20176;-75
2022/09/21 13:38:40;;;;;;;0.40;0.40;;;;;;;;;;7380347;19;20127;-75
2022/09/21 13:41:17;;;;;;;0.40;0.40;;;;;;;;;;7377614;19;20113;-74
2022/09/21 13:43:46;;;;;;;0.40;0.40;;;;;;;;;;7378793;19;20138;-74
2022/09/21 13:46:36;;;;;;;0.30;0.30;;;;;;;;;;7379225;19;20110;-74
2022/09/21 13:49:11;;;;;;;0.30;0.30;;;;;;;;;;7379789;19;20133;-74
2022/09/21 13:51:56;;;;;;;0.40;0.40;;;;;;;;;;7380608;19;20466;-74
2022/09/21 13:54:33;;;;;;;0.30;0.30;;;;;;;;;;7381040;19;20129;-75
2022/09/21 13:57:33;;;;;;;0.40;0.40;;;;;;;;;;7378891;19;20207;-75
2022/09/21 14:00:06;;;;;;;0.43;0.43;;;;;;;;;;7378468;19;20579;-75
2022/09/21 14:02:37;;;;;;;0.40;0.40;;;;;;;;;;7379129;19;20692;-75
2022/09/21 14:05:22;;;;;;;0.40;0.40;;;;;;;;;;7377077;19;20148;-74
2022/09/21 14:07:53;;;;;;;0.30;0.30;;;;;;;;;;7379269;19;20144;-74
2022/09/21 14:13:01;;;;;;;0.43;0.43;;;;;;;;;;7365403;19;20570;-75
2022/09/21 14:15:31;;;;;;;0.50;0.50;;;;;;;;;;7374159;19;20137;-74
2022/09/21 14:18:15;;;;;;;0.40;0.40;;;;;;;;;;7385451;19;20113;-74
2022/09/21 14:21:07;;;;;;;0.30;0.30;;;;;;;;;;7377966;19;20629;-74
2022/09/21 14:23:32;;;;;;;0.30;0.30;;;;;;;;;;7384944;19;20161;-74
2022/09/21 14:26:00;;;;;;;0.40;0.40;;;;;;;;;;7383799;19;20121;-74
2022/09/21 14:28:42;;;;;;;0.30;0.30;;;;;;;;;;7384192;19;20113;-74
2022/09/21 14:31:25;;;;;;;0.30;0.30;;;;;;;;;;7384816;19;20488;-74
2022/09/21 14:33:55;;;;;;;0.30;0.30;;;;;;;;;;7383276;19;20152;-74
2022/09/21 14:36:25;;;;;;;0.30;0.30;;;;;;;;;;7383708;19;20148;-74
2022/09/21 14:38:59;;;;;;;0.30;0.30;;;;;;;;;;7386183;19;20642;-74
2022/09/21 14:41:30;;;;;;;0.30;0.30;;;;;;;;;;7380427;19;20515;-74
2022/09/21 14:43:56;;;;;;;0.65;0.65;;;;;;;;;;7381277;19;20626;-74
2022/09/21 14:46:44;;;;;;;0.30;0.30;;;;;;;;;;7381008;19;20125;-74
2022/09/21 14:49:34;;;;;;;0.30;0.30;;;;;;;;;;7379845;19;20129;-74
2022/09/21 14:52:31;;;;;;;0.30;0.30;;;;;;;;;;7379730;19;20148;-74
2022/09/21 14:55:16;;;;;;;0.30;0.30;;;;;;;;;;7385403;19;20158;-75
2022/09/21 14:58:00;;;;;;;0.30;0.30;;;;;;;;;;7382653;19;20128;-74
2022/09/21 15:00:43;;;;;;;0.30;0.30;;;;;;;;;;7379775;19;20117;-74
2022/09/21 15:12:39;;;;;;;0.30;0.30;;;;;;;;;;7387363;19;20117;-75
2022/09/21 15:15:12;;;;;;;0.30;0.30;;;;;;;;;;7373005;19;20171;-75
2022/09/21 15:17:50;;;;;;;0.30;0.30;;;;;;;;;;7379988;19;20152;-74
2022/09/21 15:20:20;;;;;;;0.30;0.30;;;;;;;;;;7374603;19;20129;-75
2022/09/21 15:22:45;;;;;;;0.30;0.30;;;;;;;;;;7375583;19;20124;-75
2022/09/21 15:25:12;;;;;;;0.20;0.20;;;;;;;;;;7378840;19;20159;-75
2022/09/21 15:27:41;;;;;;;0.30;0.30;;;;;;;;;;7382270;19;20115;-75
2022/09/21 15:30:19;;;;;;;0.30;0.30;;;;;;;;;;7377523;19;20180;-75